Time;durP1;ratioP1;P1;durP2;ratioP2;P2;SDS_P1;SDS_P2;PMS_P1;PMS_P2;Temp;Humidity;BMP_temperature;BMP_pressure;BME280_temperature;BME280_humidity;BME280_pressure;Samples;Min_cycle;Max_cycle;Signal;HPM_P1;HPM_P2
2022/08/31 00:05:45;;;;;;;4.78;2.47;;;20.50;94.70;;;19.54;100.00;97714.38;4978067;28;20177;-68
2022/08/31 00:08:13;;;;;;;5.05;2.58;;;20.50;94.70;;;19.71;100.00;97708.69;4974558;28;20051;-68
2022/08/31 00:10:44;;;;;;;10.10;2.15;;;20.50;94.70;;;19.78;100.00;97714.31;4975749;28;20849;-68
2022/08/31 00:13:12;;;;;;;4.50;2.50;;;20.50;94.80;;;19.80;100.00;97718.50;4984958;28;20576;-68
2022/08/31 00:15:41;;;;;;;6.45;2.78;;;20.40;95.10;;;19.88;100.00;97722.34;4977250;28;20145;-68
2022/08/31 00:18:08;;;;;;;5.55;2.50;;;20.40;95.90;;;20.05;100.00;97722.69;5002462;28;20137;-68
2022/08/31 00:20:35;;;;;;;4.78;2.78;;;20.50;96.70;;;20.01;100.00;97737.06;4985503;28;20121;-68
2022/08/31 00:23:06;;;;;;;12.30;3.10;;;20.60;98.00;;;20.02;100.00;97748.44;5000078;28;20515;-68
2022/08/31 00:25:34;;;;;;;5.68;2.75;;;20.60;98.80;;;20.02;100.00;97757.16;4984792;28;20172;-68
2022/08/31 00:28:03;;;;;;;8.38;3.28;;;20.60;99.70;;;19.97;100.00;97761.97;5001957;28;20051;-68
2022/08/31 00:30:31;;;;;;;7.63;3.28;;;20.60;99.90;;;19.93;100.00;97784.22;4985995;28;20058;-67
2022/08/31 00:32:59;;;;;;;5.32;3.22;;;20.60;99.90;;;19.92;100.00;97802.81;4985937;28;20064;-68
2022/08/31 00:35:28;;;;;;;3.95;2.90;;;20.60;99.90;;;19.95;100.00;97806.03;4984766;28;20050;-67
2022/08/31 00:37:56;;;;;;;5.82;3.28;;;20.60;99.90;;;19.94;100.00;97803.53;4984683;28;20116;-67
2022/08/31 00:40:24;;;;;;;5.72;3.40;;;20.60;99.90;;;20.03;100.00;97814.19;4982850;28;20681;-68
2022/08/31 00:42:51;;;;;;;4.78;2.90;;;20.60;99.90;;;20.06;100.00;97813.94;4984291;28;20055;-67
2022/08/31 00:45:19;;;;;;;6.65;3.15;;;20.60;99.90;;;19.91;100.00;97809.88;4984667;28;20141;-68
2022/08/31 00:47:46;;;;;;;4.93;2.92;;;20.60;99.90;;;19.95;100.00;97807.81;4987161;28;20058;-67
2022/08/31 00:50:16;;;;;;;13.15;3.53;;;20.60;99.90;;;20.15;100.00;97803.66;4985327;28;20547;-68
2022/08/31 00:52:57;;;;;;;5.45;3.40;;;20.60;99.90;;;20.19;100.00;97805.94;5000008;28;20125;-68
2022/08/31 00:55:34;;;;;;;7.40;3.35;;;20.70;99.90;;;20.25;100.00;97797.56;4985251;28;20051;-67
2022/08/31 00:58:11;;;;;;;4.07;2.53;;;20.70;99.90;;;20.36;100.00;97796.69;5000120;28;20141;-68
2022/08/31 01:00:41;;;;;;;4.72;2.58;;;20.70;99.90;;;20.32;100.00;97791.78;4999988;28;20058;-67
2022/08/31 01:03:09;;;;;;;4.03;3.25;;;20.70;99.90;;;20.22;100.00;97792.50;4985709;28;20086;-67
2022/08/31 01:05:38;;;;;;;3.65;2.45;;;20.80;99.90;;;20.28;100.00;97791.19;4982090;28;20130;-68
2022/08/31 01:08:06;;;;;;;5.30;2.72;;;20.80;99.90;;;20.14;100.00;97792.28;4980285;28;20141;-67
2022/08/31 01:10:39;;;;;;;5.53;3.30;;;20.70;99.90;;;19.79;100.00;97805.53;4982366;28;20061;-67
2022/08/31 01:13:07;;;;;;;4.82;3.33;;;20.70;99.90;;;19.68;100.00;97816.00;4984133;28;20496;-68
2022/08/31 01:15:36;;;;;;;5.65;3.10;;;20.50;99.90;;;19.54;100.00;97814.41;4980528;28;20066;-67
2022/08/31 01:18:05;;;;;;;6.95;3.40;;;20.30;99.90;;;19.37;100.00;97819.16;4985431;28;20138;-67
2022/08/31 01:21:22;;;;;;;6.00;3.63;;;20.20;99.90;;;19.33;100.00;97822.13;4982577;28;20508;-68
2022/08/31 01:23:51;;;;;;;6.55;3.13;;;20.20;99.90;;;19.33;100.00;97837.94;4989072;28;20437;-68
2022/08/31 01:26:22;;;;;;;7.88;3.78;;;20.10;99.90;;;19.24;100.00;97852.59;4985363;28;20101;-67
2022/08/31 01:28:52;;;;;;;6.18;3.78;;;20.10;99.90;;;19.27;100.00;97856.81;4988238;28;20468;-67
2022/08/31 01:31:31;;;;;;;4.78;3.38;;;20.00;99.90;;;19.29;100.00;97868.06;5004323;28;20059;-68
2022/08/31 01:34:00;;;;;;;7.75;3.50;;;20.10;99.90;;;19.26;100.00;97882.28;4989419;28;20062;-67
2022/08/31 01:36:27;;;;;;;5.13;3.40;;;20.10;99.90;;;19.20;100.00;97909.03;4988199;28;20132;-67
2022/08/31 01:38:55;;;;;;;4.80;3.70;;;20.00;99.90;;;19.18;100.00;97919.69;4988190;28;20138;-68
2022/08/31 01:41:22;;;;;;;7.75;3.90;;;20.00;99.90;;;19.23;100.00;97929.88;4987121;28;20050;-68
2022/08/31 01:43:49;;;;;;;7.40;3.88;;;20.00;99.90;;;19.12;100.00;97943.81;4984839;28;20084;-67
2022/08/31 01:46:16;;;;;;;6.43;3.40;;;20.00;99.90;;;19.10;100.00;97956.22;5000216;28;20720;-68
2022/08/31 01:48:46;;;;;;;6.55;3.95;;;20.00;99.90;;;19.23;100.00;97974.63;4981682;28;20057;-66
2022/08/31 01:51:16;;;;;;;4.55;3.40;;;20.00;99.90;;;19.23;100.00;97990.41;4981088;28;20746;-67
2022/08/31 01:53:46;;;;;;;7.30;4.30;;;20.00;99.90;;;19.22;100.00;98002.72;4982537;28;20052;-68
2022/08/31 01:56:37;;;;;;;5.53;3.88;;;20.00;99.90;;;19.26;100.00;98005.16;4987177;28;20097;-68
2022/08/31 01:59:06;;;;;;;6.05;3.55;;;20.00;99.90;;;19.23;100.00;98014.09;4981938;28;20145;-67
2022/08/31 02:01:40;;;;;;;4.50;3.67;;;20.00;99.90;;;19.19;100.00;98023.16;4980549;28;20497;-69
2022/08/31 02:04:10;;;;;;;5.70;4.15;;;19.90;99.90;;;19.23;100.00;98028.09;4988352;28;20050;-69
2022/08/31 02:06:40;;;;;;;4.78;3.83;;;19.90;99.90;;;19.22;100.00;98030.81;4983345;28;20057;-69
2022/08/31 02:09:08;;;;;;;6.85;4.32;;;19.90;99.90;;;19.34;100.00;98026.47;4981851;28;20051;-69
2022/08/31 02:11:35;;;;;;;6.00;4.20;;;19.90;99.90;;;19.20;100.00;98024.81;4979118;28;20133;-68
2022/08/31 02:14:03;;;;;;;7.07;4.15;;;19.90;99.90;;;19.21;100.00;98035.25;4978260;28;20454;-68
2022/08/31 02:16:30;;;;;;;5.00;4.20;;;19.80;99.90;;;19.15;100.00;98051.47;4987394;28;20460;-67
2022/08/31 02:18:58;;;;;;;7.65;4.18;;;19.80;99.90;;;19.09;100.00;98045.78;4981055;28;20235;-68
2022/08/31 02:21:25;;;;;;;7.15;4.18;;;19.80;99.90;;;19.11;100.00;98043.88;4982914;28;20224;-67
2022/08/31 02:23:53;;;;;;;4.15;3.30;;;19.70;99.90;;;19.14;100.00;98041.06;4982367;28;20490;-68
2022/08/31 02:26:22;;;;;;;5.07;3.25;;;19.70;99.90;;;19.16;100.00;98040.00;4986840;28;20082;-68
2022/08/31 02:28:49;;;;;;;4.05;3.05;;;19.70;99.90;;;19.09;100.00;98037.88;4987659;28;20244;-67
2022/08/31 02:31:17;;;;;;;6.53;3.58;;;19.70;99.90;;;19.08;100.00;98041.50;4984871;28;20156;-68
2022/08/31 02:33:44;;;;;;;7.97;4.47;;;19.70;99.90;;;18.92;100.00;98058.31;5004266;28;20058;-69
2022/08/31 02:36:11;;;;;;;7.10;4.10;;;19.60;99.90;;;18.88;100.00;98069.16;4987240;28;20752;-68
2022/08/31 02:38:39;;;;;;;6.32;4.50;;;19.50;99.90;;;18.78;100.00;98079.47;4985006;28;20481;-67
2022/08/31 02:41:08;;;;;;;7.65;4.95;;;19.50;99.90;;;18.65;100.00;98087.31;4985318;28;20085;-68
2022/08/31 02:43:34;;;;;;;7.30;4.47;;;19.40;99.90;;;18.70;100.00;98097.53;4984952;28;20188;-67
2022/08/31 02:46:02;;;;;;;5.70;4.28;;;19.40;99.90;;;18.67;100.00;98090.69;4985267;28;20057;-68
2022/08/31 02:48:28;;;;;;;4.95;3.83;;;19.30;99.90;;;18.69;100.00;98096.69;4985451;28;20066;-68
2022/08/31 02:51:05;;;;;;;7.55;4.00;;;19.30;99.90;;;18.61;100.00;98109.53;4983992;28;20057;-68
2022/08/31 02:53:33;;;;;;;5.45;4.18;;;19.30;99.90;;;18.60;100.00;98105.19;4982611;28;20129;-68
2022/08/31 02:56:00;;;;;;;5.63;4.25;;;19.30;99.90;;;18.65;100.00;98110.97;4986341;28;20134;-68
2022/08/31 02:58:28;;;;;;;7.55;4.70;;;19.20;99.90;;;18.52;100.00;98115.38;4985764;28;20046;-68
2022/08/31 03:00:55;;;;;;;5.05;4.22;;;19.10;99.90;;;18.44;100.00;98118.50;4987547;28;20137;-68
2022/08/31 03:03:22;;;;;;;4.78;3.75;;;19.10;99.90;;;18.43;100.00;98118.59;4986467;28;20129;-68
2022/08/31 03:05:50;;;;;;;4.65;4.15;;;19.10;99.90;;;18.37;100.00;98123.31;4984448;28;20058;-66
2022/08/31 03:08:17;;;;;;;8.95;4.32;;;19.00;99.90;;;18.22;100.00;98134.00;4981626;28;20149;-68
2022/08/31 03:10:44;;;;;;;5.78;3.92;;;19.00;99.90;;;18.19;100.00;98145.53;4982621;28;20077;-68
2022/08/31 03:13:11;;;;;;;5.30;4.53;;;19.00;99.90;;;18.26;100.00;98161.75;4981290;28;20050;-68
2022/08/31 03:15:41;;;;;;;7.63;4.90;;;18.90;99.90;;;18.12;100.00;98166.13;4982034;28;20056;-68
2022/08/31 03:18:09;;;;;;;6.32;5.20;;;18.80;99.90;;;18.02;100.00;98172.91;4979050;28;20053;-68
2022/08/31 03:20:36;;;;;;;8.65;5.53;;;18.80;99.90;;;18.04;100.00;98181.53;4979325;28;20047;-68
2022/08/31 03:23:04;;;;;;;7.80;4.20;;;18.70;99.90;;;18.05;100.00;98185.84;4980206;28;20054;-68
2022/08/31 03:25:31;;;;;;;7.60;4.38;;;18.80;99.90;;;18.07;100.00;98178.72;4984086;28;20050;-68
2022/08/31 03:27:58;;;;;;;5.13;4.05;;;18.80;99.90;;;18.27;100.00;98161.69;4976297;28;20213;-68
2022/08/31 03:30:27;;;;;;;5.45;4.20;;;18.80;99.90;;;18.11;100.00;98146.06;4975958;28;20176;-68
2022/08/31 03:32:55;;;;;;;6.07;4.22;;;18.90;99.90;;;18.06;100.00;98147.28;4983137;28;20419;-68
2022/08/31 03:35:29;;;;;;;6.95;4.35;;;18.70;99.90;;;18.02;100.00;98153.66;4987775;28;20052;-67
2022/08/31 03:37:56;;;;;;;5.80;4.45;;;18.70;99.90;;;18.12;100.00;98152.16;4987037;28;20042;-67
2022/08/31 03:40:23;;;;;;;4.15;3.60;;;18.70;99.90;;;18.15;100.00;98152.81;4986885;28;20125;-68
2022/08/31 03:42:51;;;;;;;6.70;4.20;;;18.70;99.90;;;18.12;100.00;98149.53;4984168;28;20125;-69
2022/08/31 03:45:18;;;;;;;7.30;5.10;;;18.70;99.90;;;18.00;100.00;98148.53;4986316;28;20153;-68
2022/08/31 03:47:45;;;;;;;11.45;5.72;;;18.60;99.90;;;17.92;100.00;98161.28;4987392;28;20160;-68
2022/08/31 03:50:14;;;;;;;6.60;5.18;;;18.50;99.90;;;17.87;100.00;98173.88;4988422;28;20606;-67
2022/08/31 03:52:42;;;;;;;4.90;4.20;;;18.50;99.90;;;17.95;100.00;98169.00;5000339;28;20199;-69
2022/08/31 03:55:10;;;;;;;5.90;4.43;;;18.50;99.90;;;17.93;100.00;98163.81;4980157;28;20146;-68
2022/08/31 03:57:37;;;;;;;6.45;4.85;;;18.60;99.90;;;17.90;100.00;98163.16;4981978;28;20133;-68
2022/08/31 04:00:06;;;;;;;5.25;4.30;;;18.50;99.90;;;17.89;100.00;98167.59;4982007;28;20046;-68
2022/08/31 04:02:38;;;;;;;9.40;5.28;;;18.50;99.90;;;17.92;100.00;98172.63;4983557;28;20159;-68
2022/08/31 04:05:06;;;;;;;7.13;4.57;;;18.50;99.90;;;17.92;100.00;98166.53;4983044;28;20054;-68
2022/08/31 04:07:36;;;;;;;5.28;4.35;;;18.60;99.90;;;18.05;100.00;98169.25;4979320;28;20051;-68
2022/08/31 04:10:13;;;;;;;6.72;5.05;;;18.50;99.90;;;17.89;100.00;98172.84;4982453;28;20054;-68
2022/08/31 04:12:40;;;;;;;5.50;4.57;;;18.40;99.90;;;17.75;100.00;98178.06;4981555;28;20503;-67
2022/08/31 04:15:11;;;;;;;10.90;5.55;;;18.30;99.90;;;17.68;100.00;98182.03;4980151;28;20515;-67
2022/08/31 04:17:38;;;;;;;5.18;4.40;;;18.30;99.90;;;17.77;100.00;98187.53;4980405;28;20050;-68
2022/08/31 04:20:05;;;;;;;7.18;4.85;;;18.30;99.90;;;17.84;100.00;98190.66;4980104;28;20088;-68
2022/08/31 04:22:32;;;;;;;5.90;3.97;;;18.40;99.90;;;17.85;100.00;98192.34;4977419;28;20077;-67
2022/08/31 04:24:59;;;;;;;7.75;5.00;;;18.40;99.90;;;17.91;100.00;98194.59;4980963;28;20424;-67
2022/08/31 04:27:28;;;;;;;7.25;4.95;;;18.40;99.90;;;17.84;100.00;98192.47;4981160;28;20525;-67
2022/08/31 04:29:55;;;;;;;6.18;4.78;;;18.40;99.90;;;17.83;100.00;98196.00;4979969;28;20054;-68
2022/08/31 04:32:22;;;;;;;5.65;4.70;;;18.40;99.90;;;17.85;100.00;98189.72;4981198;28;20050;-67
2022/08/31 04:34:50;;;;;;;5.25;4.50;;;18.40;99.90;;;17.89;100.00;98188.59;4981341;28;20064;-67
2022/08/31 04:37:22;;;;;;;5.85;4.90;;;18.40;99.90;;;17.85;100.00;98191.50;4984048;28;20440;-68
2022/08/31 04:39:49;;;;;;;5.72;4.35;;;18.50;99.90;;;17.88;100.00;98194.78;4981790;28;20141;-68
2022/08/31 04:42:18;;;;;;;7.25;4.75;;;18.50;99.90;;;17.86;100.00;98201.91;4984324;28;20054;-68
2022/08/31 04:44:45;;;;;;;4.78;4.10;;;18.40;99.90;;;17.89;100.00;98199.09;4981589;28;20651;-68
2022/08/31 04:47:12;;;;;;;6.43;4.63;;;18.50;99.90;;;17.91;100.00;98194.59;4980975;28;20138;-68
2022/08/31 04:49:39;;;;;;;5.72;4.82;;;18.50;99.90;;;17.92;100.00;98196.25;4984044;28;20137;-68
2022/08/31 04:52:07;;;;;;;7.43;4.47;;;18.40;99.90;;;17.97;100.00;98194.22;4982466;28;20669;-68
2022/08/31 04:54:34;;;;;;;5.60;3.92;;;18.50;99.90;;;17.98;100.00;98188.00;5003299;28;20475;-68
2022/08/31 04:57:01;;;;;;;6.50;4.57;;;18.50;99.90;;;17.81;100.00;98190.84;4988143;28;20492;-67
2022/08/31 04:59:27;;;;;;;5.85;4.68;;;18.50;99.90;;;17.72;100.00;98197.50;4988682;28;20046;-68
2022/08/31 05:01:55;;;;;;;6.95;5.18;;;18.40;99.90;;;17.64;100.00;98215.50;4988766;28;20133;-67
2022/08/31 05:04:23;;;;;;;7.95;5.03;;;18.30;99.90;;;17.59;100.00;98211.47;4988495;28;20050;-68
2022/08/31 05:06:50;;;;;;;6.47;4.40;;;18.30;99.90;;;17.51;100.00;98210.13;4988674;28;20109;-68
2022/08/31 05:09:21;;;;;;;5.72;4.40;;;18.30;99.90;;;17.63;100.00;98208.56;4988517;28;20136;-69
2022/08/31 05:11:51;;;;;;;6.45;4.22;;;18.30;99.90;;;17.65;100.00;98193.56;4987006;28;20058;-68
2022/08/31 05:14:20;;;;;;;5.68;4.15;;;18.30;99.90;;;17.76;100.00;98167.47;4986398;28;20084;-68
2022/08/31 05:16:48;;;;;;;9.63;4.65;;;18.30;99.90;;;17.68;100.00;98153.97;4983339;28;20058;-67
2022/08/31 05:19:16;;;;;;;8.18;4.65;;;18.30;99.90;;;17.54;100.00;98154.84;4985168;28;20054;-68
2022/08/31 05:21:44;;;;;;;7.57;4.47;;;18.20;99.90;;;17.45;100.00;98158.03;4984065;28;20049;-67
2022/08/31 05:24:21;;;;;;;5.05;4.18;;;18.10;99.90;;;17.40;100.00;98141.72;4987686;28;20054;-68
2022/08/31 05:26:53;;;;;;;6.60;4.72;;;18.20;99.90;;;17.43;100.00;98154.66;4982714;28;20160;-69
2022/08/31 05:29:24;;;;;;;7.85;3.97;;;18.10;99.90;;;17.48;100.00;98144.72;4985913;28;20088;-68
2022/08/31 05:31:51;;;;;;;5.00;3.78;;;18.10;99.90;;;17.50;100.00;98124.47;4987702;28;20066;-68
2022/08/31 05:34:20;;;;;;;6.97;4.53;;;18.10;99.90;;;17.44;100.00;98088.09;4983450;28;20081;-68
2022/08/31 05:36:54;;;;;;;8.25;3.47;;;18.10;99.90;;;17.44;100.00;98066.28;4978625;28;20061;-68
2022/08/31 05:39:21;;;;;;;5.30;3.00;;;18.00;99.90;;;17.45;100.00;98058.31;4988140;28;20050;-68
2022/08/31 05:41:48;;;;;;;5.25;3.20;;;18.10;99.90;;;17.43;100.00;98044.44;4982448;28;20415;-68
2022/08/31 05:44:16;;;;;;;8.38;3.00;;;18.20;99.90;;;17.48;100.00;98034.47;4989507;28;20082;-68
2022/08/31 05:46:43;;;;;;;8.23;4.28;;;18.20;99.90;;;17.46;100.00;98033.75;4988995;28;20513;-68
2022/08/31 05:49:20;;;;;;;7.03;3.67;;;18.10;99.90;;;17.41;100.00;98029.72;4987491;28;20178;-68
2022/08/31 05:51:47;;;;;;;11.82;3.90;;;18.10;99.90;;;17.46;100.00;98025.03;4984136;28;20055;-68
2022/08/31 05:54:16;;;;;;;6.88;2.95;;;18.10;99.90;;;17.39;100.00;98032.44;4986947;28;20157;-68
2022/08/31 05:56:44;;;;;;;8.05;3.05;;;18.10;99.90;;;17.33;100.00;98051.19;4989542;28;20174;-68
2022/08/31 05:59:13;;;;;;;6.70;3.30;;;18.00;99.90;;;17.31;100.00;98058.31;4988117;28;20054;-69
2022/08/31 06:01:41;;;;;;;10.13;3.33;;;18.00;99.90;;;17.29;100.00;98066.28;4988125;28;20404;-68
2022/08/31 06:04:09;;;;;;;13.48;3.60;;;18.00;99.90;;;17.29;100.00;98095.16;4987981;28;20117;-67
2022/08/31 06:06:37;;;;;;;16.35;4.05;;;18.00;99.90;;;17.23;100.00;98129.63;4985406;28;20051;-69
2022/08/31 06:09:08;;;;;;;8.38;3.40;;;17.90;99.90;;;17.29;100.00;98142.38;5004568;28;20133;-69
2022/08/31 06:11:37;;;;;;;4.95;3.17;;;17.90;99.90;;;17.28;100.00;98166.09;4986473;28;20076;-68
2022/08/31 06:14:05;;;;;;;6.28;3.65;;;17.90;99.90;;;17.28;100.00;98173.94;4986366;28;20389;-68
2022/08/31 06:16:32;;;;;;;9.05;3.58;;;17.90;99.90;;;17.25;100.00;98180.22;4986008;28;20054;-69
2022/08/31 06:19:02;;;;;;;4.93;3.45;;;17.80;99.90;;;17.27;100.00;98188.84;4988382;28;20050;-68
2022/08/31 06:21:33;;;;;;;11.45;3.78;;;17.80;99.90;;;17.22;100.00;98190.06;4983238;28;20475;-68
2022/08/31 06:24:02;;;;;;;6.68;3.25;;;17.90;99.90;;;17.19;100.00;98190.25;4987293;28;20058;-68
2022/08/31 06:26:32;;;;;;;7.63;3.55;;;17.80;99.90;;;17.17;100.00;98176.38;4984642;28;20170;-68
2022/08/31 06:29:03;;;;;;;7.35;3.13;;;17.80;99.90;;;17.15;100.00;98171.22;4983557;28;20129;-68
2022/08/31 06:31:45;;;;;;;4.85;3.00;;;17.90;99.90;;;17.31;100.00;98179.88;4982027;28;20149;-68
2022/08/31 06:34:15;;;;;;;6.70;3.90;;;17.80;99.90;;;17.08;100.00;98180.38;4987093;28;20055;-68
2022/08/31 06:36:42;;;;;;;4.70;3.65;;;18.00;99.90;;;17.24;100.00;98182.94;4982931;28;20050;-68
2022/08/31 06:39:11;;;;;;;5.57;3.47;;;17.90;99.90;;;17.32;100.00;98172.84;4986824;28;20065;-68
2022/08/31 06:41:41;;;;;;;4.60;3.20;;;18.00;99.90;;;17.39;100.00;98163.66;5002983;28;20061;-68
2022/08/31 06:44:11;;;;;;;5.18;3.25;;;18.00;99.90;;;17.43;100.00;98159.91;5002649;28;20060;-67
2022/08/31 06:46:40;;;;;;;6.20;3.53;;;18.00;99.90;;;17.47;100.00;98164.03;4987990;28;20477;-68
2022/08/31 06:49:09;;;;;;;6.07;3.65;;;18.00;99.90;;;17.45;100.00;98167.69;5002247;28;20082;-68
2022/08/31 06:51:36;;;;;;;7.45;4.07;;;18.10;99.90;;;17.50;100.00;98171.72;5003338;28;20593;-68
2022/08/31 06:54:10;;;;;;;6.78;4.35;;;18.10;99.90;;;17.44;100.00;98182.56;5004694;28;20108;-67
2022/08/31 06:57:01;;;;;;;6.97;3.78;;;18.10;99.90;;;17.47;100.00;98179.78;4984310;28;20134;-68
2022/08/31 06:59:28;;;;;;;7.25;3.58;;;18.20;99.90;;;17.37;100.00;98169.94;4984790;28;20050;-68
2022/08/31 07:02:00;;;;;;;5.53;3.47;;;18.30;99.90;;;17.44;100.00;98172.06;4985514;28;20052;-67
2022/08/31 07:04:32;;;;;;;5.47;3.22;;;18.40;99.90;;;17.69;100.00;98170.56;4987126;28;20149;-67
2022/08/31 07:06:59;;;;;;;7.90;4.10;;;18.40;99.90;;;17.66;100.00;98160.28;4984295;28;20132;-68
2022/08/31 07:09:26;;;;;;;7.55;3.63;;;18.50;99.90;;;17.66;100.00;98166.38;4985720;28;20529;-67
2022/08/31 07:11:53;;;;;;;7.65;3.80;;;18.50;99.90;;;17.77;100.00;98177.03;4985122;28;20460;-68
2022/08/31 07:14:25;;;;;;;6.28;3.60;;;18.60;99.90;;;17.77;100.00;98170.97;4987704;28;20054;-67
2022/08/31 07:16:55;;;;;;;9.23;4.10;;;18.60;99.90;;;17.85;100.00;98175.75;4986792;28;20113;-67
2022/08/31 07:19:24;;;;;;;6.97;3.75;;;18.70;99.90;;;17.96;100.00;98168.88;4985127;28;20053;-68
2022/08/31 07:21:55;;;;;;;7.45;3.97;;;18.70;99.90;;;17.66;100.00;98169.00;4983462;28;20551;-68
2022/08/31 07:24:28;;;;;;;7.55;3.72;;;18.80;99.90;;;17.99;100.00;98180.97;4984710;28;20138;-68
2022/08/31 07:27:08;;;;;;;7.72;3.72;;;18.80;99.90;;;18.11;100.00;98180.22;4983085;28;20078;-68
2022/08/31 07:29:40;;;;;;;8.02;3.95;;;18.90;99.90;;;18.01;100.00;98179.09;4981577;28;20059;-68
2022/08/31 07:32:11;;;;;;;11.65;4.28;;;18.80;99.90;;;18.01;100.00;98180.88;4980586;28;20117;-68
2022/08/31 07:34:38;;;;;;;7.45;4.32;;;18.80;99.90;;;17.89;100.00;98191.22;4981067;28;20058;-67
2022/08/31 07:42:43;;;;;;;10.10;4.30;;;18.60;99.90;;;17.80;100.00;98225.91;4987545;28;20046;-67
2022/08/31 07:45:20;;;;;;;8.27;4.25;;;18.50;99.90;;;17.87;100.00;98235.09;4987878;28;20060;-67
2022/08/31 07:47:53;;;;;;;5.60;3.78;;;18.60;99.90;;;17.90;100.00;98237.56;4985672;28;20152;-67
2022/08/31 07:50:21;;;;;;;7.95;4.80;;;18.60;99.90;;;17.89;100.00;98253.41;4988990;28;20118;-67
2022/08/31 07:52:52;;;;;;;9.75;4.82;;;18.70;99.90;;;17.85;100.00;98258.00;4985086;28;20098;-68
2022/08/31 07:55:22;;;;;;;6.55;4.40;;;18.60;99.90;;;17.82;100.00;98259.97;4986068;28;20046;-67
2022/08/31 07:57:53;;;;;;;6.22;3.97;;;18.50;99.90;;;17.78;100.00;98272.41;4988135;28;20137;-69
2022/08/31 08:00:28;;;;;;;7.28;4.20;;;18.60;99.90;;;18.00;100.00;98292.16;4987139;28;20164;-67
2022/08/31 08:03:01;;;;;;;7.03;4.32;;;18.70;99.90;;;17.90;100.00;98308.47;4987120;28;20056;-69
2022/08/31 08:05:30;;;;;;;6.80;4.45;;;18.80;99.90;;;18.09;100.00;98304.72;4983681;28;20112;-67
2022/08/31 08:08:04;;;;;;;7.63;5.07;;;18.80;99.90;;;18.04;100.00;98301.50;4985758;28;20213;-67
2022/08/31 08:10:43;;;;;;;11.07;4.80;;;18.70;99.90;;;18.04;100.00;98299.75;4987347;28;20432;-68
2022/08/31 08:13:18;;;;;;;6.80;5.38;;;18.80;99.90;;;17.94;100.00;98299.44;4988096;28;20046;-69
2022/08/31 08:15:49;;;;;;;7.43;5.22;;;18.70;99.90;;;17.87;100.00;98310.44;4985944;28;20409;-68
2022/08/31 08:18:18;;;;;;;10.67;4.97;;;18.70;99.90;;;17.95;100.00;98319.53;4987003;28;20157;-68
2022/08/31 08:20:45;;;;;;;7.78;4.80;;;18.70;99.90;;;18.05;100.00;98322.44;5000612;28;20514;-68
2022/08/31 08:23:15;;;;;;;10.45;5.47;;;18.80;99.90;;;18.23;100.00;98314.38;4984574;28;20137;-68
2022/08/31 08:25:55;;;;;;;9.90;4.55;;;19.00;99.90;;;18.38;100.00;98305.50;4983171;28;20541;-68
2022/08/31 08:28:29;;;;;;;8.15;4.65;;;19.10;99.90;;;18.42;100.00;98293.03;4985833;28;20069;-69
2022/08/31 08:31:21;;;;;;;5.70;4.15;;;19.30;99.90;;;18.64;100.00;98268.88;4985953;28;20112;-68
2022/08/31 08:33:50;;;;;;;7.28;4.07;;;19.50;99.90;;;19.01;100.00;98254.16;4986172;28;20050;-68
2022/08/31 08:36:18;;;;;;;8.07;3.80;;;19.70;99.90;;;19.26;100.00;98242.00;4982213;28;20060;-67
2022/08/31 08:38:52;;;;;;;6.85;3.65;;;19.90;99.90;;;19.53;100.00;98228.75;4984170;28;20421;-68
2022/08/31 08:41:26;;;;;;;7.47;3.50;;;20.10;99.90;;;19.74;100.00;98224.66;4983322;28;20529;-68
2022/08/31 08:44:00;;;;;;;7.85;4.18;;;20.50;99.90;;;19.72;100.00;98213.38;4984886;28;20096;-68
2022/08/31 08:46:38;;;;;;;7.97;4.05;;;20.60;99.90;;;19.85;100.00;98214.22;4985507;28;20145;-68
2022/08/31 08:49:42;;;;;;;8.75;3.75;;;20.80;99.90;;;20.16;100.00;98216.47;5000958;28;20220;-68
2022/08/31 08:52:20;;;;;;;5.55;3.58;;;21.00;99.90;;;19.95;100.00;98203.03;4984929;28;20089;-68
2022/08/31 08:54:48;;;;;;;6.03;3.80;;;21.30;99.90;;;20.34;100.00;98199.31;5000104;28;20137;-68
2022/08/31 08:57:30;;;;;;;9.25;3.75;;;21.30;99.90;;;20.53;100.00;98183.03;4982956;28;20078;-67
2022/08/31 09:00:29;;;;;;;5.10;2.92;;;21.40;99.90;;;20.87;100.00;98194.56;4983852;28;20046;-67
2022/08/31 09:03:20;;;;;;;5.32;3.75;;;21.50;99.90;;;20.58;100.00;98193.25;4978022;28;20046;-68
2022/08/31 09:05:58;;;;;;;10.73;3.58;;;21.80;99.90;;;20.85;100.00;98182.44;5000344;28;20130;-68
2022/08/31 09:08:46;;;;;;;7.18;3.33;;;22.00;99.90;;;20.48;100.00;98178.09;4983358;28;20117;-68
2022/08/31 09:11:48;;;;;;;6.82;3.08;;;22.00;99.90;;;21.02;100.00;98166.16;4983069;28;20112;-66
2022/08/31 09:14:48;;;;;;;5.05;3.13;;;22.10;99.90;;;21.17;100.00;98158.91;4983718;28;20583;-67
2022/08/31 09:17:37;;;;;;;9.93;3.17;;;22.20;99.90;;;21.09;100.00;98138.34;4997271;28;20173;-68
2022/08/31 09:20:06;;;;;;;8.10;2.88;;;22.00;99.90;;;20.83;100.00;98124.50;4985156;28;20141;-68
2022/08/31 09:22:45;;;;;;;4.00;2.85;;;21.90;99.90;;;20.70;100.00;98134.31;4985423;28;20142;-67
2022/08/31 09:25:31;;;;;;;5.90;3.10;;;21.80;99.90;;;20.93;100.00;98132.56;4985877;28;20066;-68
2022/08/31 09:28:07;;;;;;;7.90;2.97;;;21.90;99.90;;;20.94;100.00;98109.66;4985692;28;20054;-67
2022/08/31 09:30:37;;;;;;;5.47;2.88;;;22.00;99.90;;;20.77;100.00;98100.38;4983885;28;20140;-68
2022/08/31 09:33:05;;;;;;;7.00;3.17;;;21.80;99.90;;;20.75;100.00;98102.31;4982935;28;20173;-68
2022/08/31 09:35:40;;;;;;;8.48;3.45;;;21.80;99.90;;;20.86;100.00;98095.25;4980734;28;20133;-67
2022/08/31 09:38:25;;;;;;;5.72;3.58;;;21.90;99.90;;;21.02;100.00;98089.63;4984082;28;20138;-68
2022/08/31 09:40:53;;;;;;;6.65;3.67;;;21.90;99.90;;;21.20;100.00;98086.53;4988770;28;20042;-70
2022/08/31 09:43:37;;;;;;;6.68;3.42;;;22.10;99.90;;;21.40;100.00;98070.00;4987284;28;20046;-68
2022/08/31 09:46:25;;;;;;;7.95;3.38;;;22.20;99.90;;;21.72;100.00;98064.78;4990126;28;20062;-67
2022/08/31 09:48:59;;;;;;;6.53;4.07;;;22.40;99.90;;;21.60;100.00;98060.50;4990409;28;20467;-67
2022/08/31 09:51:33;;;;;;;11.10;3.70;;;22.60;99.90;;;21.62;100.00;98057.72;4984133;28;20424;-68
2022/08/31 09:57:12;;;;;;;5.15;3.25;;;22.80;99.90;;;21.89;100.00;98071.34;4988260;28;20054;-67
2022/08/31 09:59:50;;;;;;;7.25;3.63;;;22.80;99.90;;;22.25;100.00;98056.09;4988711;28;20065;-67
2022/08/31 10:02:21;;;;;;;5.68;3.08;;;23.00;99.90;;;22.23;100.00;98046.63;4986413;28;20054;-67
2022/08/31 10:04:53;;;;;;;8.68;4.32;;;23.00;99.90;;;21.75;100.00;98044.38;5004058;28;20061;-68
2022/08/31 10:07:48;;;;;;;5.05;3.33;;;22.80;99.90;;;21.91;100.00;98050.09;4987827;28;20089;-68
2022/08/31 10:10:26;;;;;;;5.78;3.50;;;22.90;99.90;;;22.12;100.00;98036.91;4999909;28;20680;-68
2022/08/31 10:13:35;;;;;;;6.15;3.83;;;23.20;99.90;;;22.13;100.00;98036.78;4987684;28;20082;-68
2022/08/31 10:16:29;;;;;;;5.18;3.00;;;23.20;99.90;;;22.59;100.00;98039.25;4984644;28;20074;-67
2022/08/31 10:19:05;;;;;;;8.02;3.70;;;23.40;99.90;;;22.40;100.00;98018.75;4986172;28;20079;-68
2022/08/31 10:21:53;;;;;;;6.22;3.45;;;23.50;99.90;;;22.87;100.00;98017.38;4984703;28;20527;-68
2022/08/31 10:24:33;;;;;;;4.63;3.60;;;23.40;99.90;;;22.90;100.00;98009.19;4985623;28;20138;-68
2022/08/31 10:27:19;;;;;;;7.55;3.67;;;23.50;99.90;;;22.97;100.00;97999.75;4987289;28;20152;-67
2022/08/31 10:30:42;;;;;;;9.15;3.83;;;23.70;99.90;;;23.62;100.00;97982.66;4986999;28;20096;-67
2022/08/31 10:33:19;;;;;;;5.00;2.95;;;24.10;99.90;;;24.32;100.00;97984.22;4987913;28;20050;-68
2022/08/31 10:35:56;;;;;;;5.30;2.60;;;24.60;99.90;;;24.79;100.00;97968.34;4987107;28;20063;-68
2022/08/31 10:38:42;;;;;;;7.57;3.00;;;25.10;99.90;;;24.56;100.00;97946.63;4986687;28;20125;-68
2022/08/31 10:41:27;;;;;;;6.65;3.03;;;25.20;99.90;;;24.05;100.00;97947.00;4987854;28;20532;-67
2022/08/31 10:44:35;;;;;;;5.72;3.20;;;24.90;99.90;;;23.37;100.00;97966.28;4990035;28;20068;-68
2022/08/31 10:47:04;;;;;;;7.85;3.63;;;24.50;99.90;;;24.53;100.00;97949.56;4982837;28;20288;-68